createdAt,value
2018-08-21T00:01:19.000Z,100852
2018-08-21T00:02:19.000Z,100855
2018-08-21T00:04:19.000Z,100856
2018-08-21T00:06:19.000Z,100857
2018-08-21T00:07:19.000Z,100856
2018-08-21T00:08:19.000Z,100852
2018-08-21T00:09:19.000Z,100851
2018-08-21T00:11:19.000Z,100852
2018-08-21T00:12:19.000Z,100847
2018-08-21T00:14:19.000Z,100847
2018-08-21T00:16:19.000Z,100847
2018-08-21T00:17:19.000Z,100845
2018-08-21T00:19:19.000Z,100841
2018-08-21T00:21:19.000Z,100844
2018-08-21T00:22:49.000Z,100838
2018-08-21T00:24:20.000Z,100838
2018-08-21T00:25:20.000Z,100838
2018-08-21T00:27:04.000Z,100840
2018-08-21T00:28:20.000Z,100833
2018-08-21T00:30:20.000Z,100836
2018-08-21T00:32:04.000Z,100841
2018-08-21T00:34:20.000Z,100842
2018-08-21T00:36:20.000Z,100845
2018-08-21T00:38:20.000Z,100841
2018-08-21T00:40:20.000Z,100844
2018-08-21T00:41:20.000Z,100842
2018-08-21T00:43:20.000Z,100838
2018-08-21T00:45:20.000Z,100832
2018-08-21T00:47:20.000Z,100837
2018-08-21T00:49:20.000Z,100833
2018-08-21T00:51:20.000Z,100839
2018-08-21T00:53:20.000Z,100836
2018-08-21T00:55:20.000Z,100838
2018-08-21T00:56:20.000Z,100839
2018-08-21T00:58:04.000Z,100836
2018-08-21T00:59:20.000Z,100843
2018-08-21T01:01:04.000Z,100835
2018-08-21T01:02:20.000Z,100843
2018-08-21T01:04:20.000Z,100842
2018-08-21T01:05:20.000Z,100844
2018-08-21T01:07:20.000Z,100841
2018-08-21T01:09:20.000Z,100844
2018-08-21T01:11:20.000Z,100843
2018-08-21T01:12:20.000Z,100844
2018-08-21T01:14:20.000Z,100843
2018-08-21T01:16:20.000Z,100845
2018-08-21T01:18:20.000Z,100845
2018-08-21T01:19:20.000Z,100847
2018-08-21T01:20:20.000Z,100843
2018-08-21T01:21:20.000Z,100839
2018-08-21T01:23:20.000Z,100841
2018-08-21T01:24:20.000Z,100840
2018-08-21T01:26:20.000Z,100842
2018-08-21T01:28:20.000Z,100838
2018-08-21T01:29:20.000Z,100844
2018-08-21T01:31:20.000Z,100843
2018-08-21T01:33:20.000Z,100847
2018-08-21T01:34:20.000Z,100840
2018-08-21T01:36:04.000Z,100846
2018-08-21T01:37:20.000Z,100840
2018-08-21T01:38:20.000Z,100838
2018-08-21T01:40:04.000Z,100840
2018-08-21T01:41:20.000Z,100841
2018-08-21T01:42:20.000Z,100843
2018-08-21T01:44:20.000Z,100844
2018-08-21T01:45:20.000Z,100836
2018-08-21T01:46:20.000Z,100842
2018-08-21T01:48:20.000Z,100846
2018-08-21T01:50:20.000Z,100844
2018-08-21T01:52:04.000Z,100848
2018-08-21T01:53:20.000Z,100845
2018-08-21T01:55:20.000Z,100855
2018-08-21T01:57:20.000Z,100849
2018-08-21T01:59:20.000Z,100847
2018-08-21T02:01:20.000Z,100852
2018-08-21T02:03:20.000Z,100847
2018-08-21T02:04:20.000Z,100849
2018-08-21T02:06:20.000Z,100853
2018-08-21T02:08:20.000Z,100854
2018-08-21T02:10:04.000Z,100854
2018-08-21T02:11:20.000Z,100851
2018-08-21T02:13:20.000Z,100848
2018-08-21T02:15:20.000Z,100850
2018-08-21T02:17:20.000Z,100849
2018-08-21T02:18:20.000Z,100852
2018-08-21T02:20:20.000Z,100846
2018-08-21T02:22:20.000Z,100841
2018-08-21T02:23:20.000Z,100843
2018-08-21T02:25:20.000Z,100844
2018-08-21T02:26:49.000Z,100847
2018-08-21T02:28:20.000Z,100842
2018-08-21T02:30:20.000Z,100842
2018-08-21T02:32:20.000Z,100840
2018-08-21T02:34:20.000Z,100836
2018-08-21T02:36:04.000Z,100831
2018-08-21T02:37:20.000Z,100835
2018-08-21T02:38:20.000Z,100837
2018-08-21T02:40:20.000Z,100835
2018-08-21T02:41:20.000Z,100836
2018-08-21T02:42:20.000Z,100837
2018-08-21T02:44:20.000Z,100830
2018-08-21T02:46:20.000Z,100834
2018-08-21T02:48:20.000Z,100826
2018-08-21T02:50:20.000Z,100828
2018-08-21T02:51:20.000Z,100830
2018-08-21T02:52:20.000Z,100825
2018-08-21T02:54:20.000Z,100826
2018-08-21T02:55:20.000Z,100832
2018-08-21T02:56:20.000Z,100828
2018-08-21T02:58:20.000Z,100828
2018-08-21T02:59:20.000Z,100831
2018-08-21T03:00:20.000Z,100826
2018-08-21T03:02:20.000Z,100823
2018-08-21T03:04:20.000Z,100822
2018-08-21T03:05:20.000Z,100818
2018-08-21T03:07:20.000Z,100821
2018-08-21T03:08:20.000Z,100815
2018-08-21T03:10:20.000Z,100815
2018-08-21T03:11:20.000Z,100818
2018-08-21T03:13:20.000Z,100815
2018-08-21T03:14:20.000Z,100819
2018-08-21T03:16:20.000Z,100820
2018-08-21T03:18:04.000Z,100822
2018-08-21T03:19:20.000Z,100821
2018-08-21T03:21:20.000Z,100818
2018-08-21T03:23:20.000Z,100818
2018-08-21T03:25:20.000Z,100818
2018-08-21T03:27:04.000Z,100828
2018-08-21T03:28:20.000Z,100815
2018-08-21T03:30:04.000Z,100814
2018-08-21T03:31:20.000Z,100813
2018-08-21T03:32:20.000Z,100809
2018-08-21T03:33:20.000Z,100815
2018-08-21T03:34:19.000Z,100817
2018-08-21T03:36:19.000Z,100818
2018-08-21T03:38:19.000Z,100815
2018-08-21T03:40:19.000Z,100812
2018-08-21T03:41:19.000Z,100812
2018-08-21T03:43:19.000Z,100806
2018-08-21T03:45:19.000Z,100809
2018-08-21T03:47:19.000Z,100811
2018-08-21T03:49:19.000Z,100813
2018-08-21T03:50:19.000Z,100812
2018-08-21T03:52:19.000Z,100812
2018-08-21T03:54:19.000Z,100815
2018-08-21T03:55:19.000Z,100816
2018-08-21T03:57:04.000Z,100815
2018-08-21T03:58:19.000Z,100806
2018-08-21T03:59:19.000Z,100804
2018-08-21T04:00:19.000Z,100811
2018-08-21T04:02:19.000Z,100811
2018-08-21T04:03:49.000Z,100818
2018-08-21T04:05:19.000Z,100823
2018-08-21T04:07:19.000Z,100819
2018-08-21T04:09:19.000Z,100818
2018-08-21T04:11:04.000Z,100815
2018-08-21T04:12:19.000Z,100810
2018-08-21T04:14:19.000Z,100817
2018-08-21T04:15:19.000Z,100814
2018-08-21T04:17:19.000Z,100823
2018-08-21T04:19:19.000Z,100817
2018-08-21T04:21:19.000Z,100819
2018-08-21T04:23:19.000Z,100821
2018-08-21T04:25:19.000Z,100822
2018-08-21T04:26:19.000Z,100825
2018-08-21T04:27:19.000Z,100824
2018-08-21T04:29:19.000Z,100824
2018-08-21T04:31:19.000Z,100829
2018-08-21T04:33:19.000Z,100825
2018-08-21T04:34:19.000Z,100824
2018-08-21T04:36:19.000Z,100825
2018-08-21T04:38:20.000Z,100835
2018-08-21T04:40:20.000Z,100830
2018-08-21T04:42:20.000Z,100825
2018-08-21T04:44:20.000Z,100829
2018-08-21T04:46:20.000Z,100843
2018-08-21T04:47:20.000Z,100844
2018-08-21T04:48:20.000Z,100839
2018-08-21T04:50:20.000Z,100842
2018-08-21T04:52:20.000Z,100844
2018-08-21T04:54:20.000Z,100843
2018-08-21T04:56:20.000Z,100843
2018-08-21T04:58:20.000Z,100842
2018-08-21T04:59:20.000Z,100846
2018-08-21T05:01:20.000Z,100848
2018-08-21T05:03:20.000Z,100847
2018-08-21T05:04:20.000Z,100850
2018-08-21T05:06:20.000Z,100846
2018-08-21T05:08:20.000Z,100845
2018-08-21T05:10:20.000Z,100844
2018-08-21T05:12:20.000Z,100848
2018-08-21T05:14:20.000Z,100847
2018-08-21T05:16:04.000Z,100850
2018-08-21T05:17:20.000Z,100855
2018-08-21T05:18:20.000Z,100856
2018-08-21T05:20:04.000Z,100851
2018-08-21T05:21:20.000Z,100857
2018-08-21T05:23:04.000Z,100857
2018-08-21T05:24:20.000Z,100855
2018-08-21T05:26:04.000Z,100859
2018-08-21T05:27:20.000Z,100861
2018-08-21T05:29:04.000Z,100857
2018-08-21T05:30:04.000Z,100858
2018-08-21T05:31:20.000Z,100860
2018-08-21T05:33:20.000Z,100868
2018-08-21T05:35:04.000Z,100866
2018-08-21T05:36:04.000Z,100864
2018-08-21T05:37:20.000Z,100868
2018-08-21T05:39:20.000Z,100871
2018-08-21T05:41:20.000Z,100872
2018-08-21T05:43:19.000Z,100875
2018-08-21T05:44:19.000Z,100872
2018-08-21T05:46:19.000Z,100873
2018-08-21T05:48:19.000Z,100876
2018-08-21T05:50:19.000Z,100875
2018-08-21T05:52:19.000Z,100874
2018-08-21T05:54:19.000Z,100878
2018-08-21T05:56:19.000Z,100874
2018-08-21T05:57:19.000Z,100877
2018-08-21T05:59:19.000Z,100873
2018-08-21T06:00:19.000Z,100875
2018-08-21T06:02:19.000Z,100883
2018-08-21T06:04:04.000Z,100886
2018-08-21T06:05:19.000Z,100879
2018-08-21T06:07:19.000Z,100886
2018-08-21T06:09:19.000Z,100884
2018-08-21T06:10:19.000Z,100884
2018-08-21T06:12:19.000Z,100888
2018-08-21T06:14:19.000Z,100884
2018-08-21T06:15:19.000Z,100887
2018-08-21T06:16:49.000Z,100883
2018-08-21T06:18:19.000Z,100887
2018-08-21T06:19:19.000Z,100885
2018-08-21T06:21:19.000Z,100894
2018-08-21T06:23:04.000Z,100893
2018-08-21T06:24:19.000Z,100890
2018-08-21T06:26:19.000Z,100885
2018-08-21T06:28:19.000Z,100880
2018-08-21T06:29:49.000Z,100879
2018-08-21T06:31:19.000Z,100887
2018-08-21T06:33:19.000Z,100882
2018-08-21T06:34:19.000Z,100888
2018-08-21T06:36:19.000Z,100885
2018-08-21T06:37:19.000Z,100890
2018-08-21T06:39:04.000Z,100896
2018-08-21T06:40:19.000Z,100895
2018-08-21T06:42:19.000Z,100899
2018-08-21T06:44:19.000Z,100896
2018-08-21T06:46:20.000Z,100896
2018-08-21T06:48:20.000Z,100897
2018-08-21T06:50:05.000Z,100902
2018-08-21T06:51:20.000Z,100898
2018-08-21T06:52:20.000Z,100900
2018-08-21T06:54:20.000Z,100897
2018-08-21T06:56:05.000Z,100901
2018-08-21T06:57:20.000Z,100895
2018-08-21T06:58:20.000Z,100902
2018-08-21T07:00:20.000Z,100903
2018-08-21T07:01:20.000Z,100895
2018-08-21T07:03:20.000Z,100901
2018-08-21T07:05:20.000Z,100900
2018-08-21T07:06:20.000Z,100899
2018-08-21T07:08:20.000Z,100896
2018-08-21T07:10:20.000Z,100895
2018-08-21T07:12:20.000Z,100895
2018-08-21T07:14:20.000Z,100896
2018-08-21T07:16:20.000Z,100893
2018-08-21T07:18:20.000Z,100897
2018-08-21T07:20:20.000Z,100901
2018-08-21T07:22:20.000Z,100897
2018-08-21T07:24:20.000Z,100900
2018-08-21T07:26:20.000Z,100904
2018-08-21T07:27:20.000Z,100902
2018-08-21T07:29:20.000Z,100895
2018-08-21T07:30:20.000Z,100899
2018-08-21T07:31:20.000Z,100894
2018-08-21T07:33:20.000Z,100900
2018-08-21T07:35:20.000Z,100897
2018-08-21T07:37:05.000Z,100899
2018-08-21T07:38:20.000Z,100897
2018-08-21T07:39:50.000Z,100892
2018-08-21T07:41:20.000Z,100895
2018-08-21T07:42:20.000Z,100896
2018-08-21T07:44:20.000Z,100895
2018-08-21T07:46:05.000Z,100903
2018-08-21T07:47:05.000Z,100900
2018-08-21T07:48:20.000Z,100897
2018-08-21T07:49:19.000Z,100900
2018-08-21T07:51:19.000Z,100898
2018-08-21T07:52:20.000Z,100893
2018-08-21T07:54:19.000Z,100900
2018-08-21T07:56:04.000Z,100903
2018-08-21T07:57:04.000Z,100905
2018-08-21T07:58:19.000Z,100902
2018-08-21T08:00:19.000Z,100905
2018-08-21T08:02:04.000Z,100899
2018-08-21T08:03:19.000Z,100898
2018-08-21T08:04:20.000Z,100900
2018-08-21T08:06:19.000Z,100903
2018-08-21T08:08:04.000Z,100901
2018-08-21T08:09:19.000Z,100900
2018-08-21T08:11:04.000Z,100901
2018-08-21T08:12:19.000Z,100900
2018-08-21T08:13:19.000Z,100906
2018-08-21T08:15:20.000Z,100906
2018-08-21T08:17:20.000Z,100908
2018-08-21T08:19:20.000Z,100909
2018-08-21T08:21:04.000Z,100911
2018-08-21T08:22:19.000Z,100911
2018-08-21T08:24:19.000Z,100910
2018-08-21T08:26:20.000Z,100905
2018-08-21T08:28:20.000Z,100909
2018-08-21T08:30:20.000Z,100904
2018-08-21T08:32:20.000Z,100907
2018-08-21T08:34:20.000Z,100908
2018-08-21T08:35:20.000Z,100905
2018-08-21T08:37:20.000Z,100907
2018-08-21T08:39:19.000Z,100900
2018-08-21T08:41:19.000Z,100898
2018-08-21T08:42:19.000Z,100898
2018-08-21T08:43:20.000Z,100897
2018-08-21T08:45:04.000Z,100899
2018-08-21T08:46:19.000Z,100900
2018-08-21T08:48:19.000Z,100901
2018-08-21T08:49:19.000Z,100898
2018-08-21T08:51:04.000Z,100901
2018-08-21T08:52:04.000Z,100902
2018-08-21T08:53:20.000Z,100899
2018-08-21T08:55:20.000Z,100898
2018-08-21T08:57:20.000Z,100896
2018-08-21T08:59:20.000Z,100897
2018-08-21T09:00:20.000Z,100894
2018-08-21T09:02:20.000Z,100893
2018-08-21T09:04:20.000Z,100894
2018-08-21T09:06:20.000Z,100896
2018-08-21T09:08:20.000Z,100891
2018-08-21T09:10:20.000Z,100889
2018-08-21T09:11:20.000Z,100885
2018-08-21T09:13:04.000Z,100889
2018-08-21T09:14:20.000Z,100885
2018-08-21T09:16:04.000Z,100886
2018-08-21T09:17:20.000Z,100891
2018-08-21T09:18:20.000Z,100892
2018-08-21T09:20:20.000Z,100897
2018-08-21T09:22:20.000Z,100899
2018-08-21T09:24:20.000Z,100900
2018-08-21T09:25:20.000Z,100889
2018-08-21T09:27:20.000Z,100897
2018-08-21T09:29:20.000Z,100895
2018-08-21T09:31:20.000Z,100897
2018-08-21T09:32:20.000Z,100897
2018-08-21T09:33:49.000Z,100895
2018-08-21T09:35:20.000Z,100893
2018-08-21T09:36:20.000Z,100895
2018-08-21T09:38:04.000Z,100890
2018-08-21T09:39:20.000Z,100891
2018-08-21T09:41:20.000Z,100887
2018-08-21T09:42:20.000Z,100886
2018-08-21T09:44:04.000Z,100884
2018-08-21T09:45:20.000Z,100880
2018-08-21T09:47:20.000Z,100875
2018-08-21T09:48:20.000Z,100879
2018-08-21T09:50:20.000Z,100874
2018-08-21T09:52:20.000Z,100877
2018-08-21T09:53:20.000Z,100877
2018-08-21T09:55:20.000Z,100874
2018-08-21T09:56:20.000Z,100876
2018-08-21T09:58:04.000Z,100880
2018-08-21T09:59:19.000Z,100872
2018-08-21T10:01:04.000Z,100877
2018-08-21T10:02:19.000Z,100871
2018-08-21T10:03:19.000Z,100877
2018-08-21T10:05:19.000Z,100872
2018-08-21T10:07:19.000Z,100873
2018-08-21T10:09:19.000Z,100872
2018-08-21T10:11:19.000Z,100869
2018-08-21T10:13:19.000Z,100873
2018-08-21T10:15:19.000Z,100866
2018-08-21T10:17:19.000Z,100868
2018-08-21T10:18:19.000Z,100873
2018-08-21T10:20:19.000Z,100872
2018-08-21T10:22:19.000Z,100875
2018-08-21T10:23:19.000Z,100871
2018-08-21T10:25:19.000Z,100868
2018-08-21T10:27:19.000Z,100869
2018-08-21T10:29:19.000Z,100868
2018-08-21T10:31:19.000Z,100858
2018-08-21T10:32:19.000Z,100858
2018-08-21T10:34:04.000Z,100858
2018-08-21T10:35:19.000Z,100855
2018-08-21T10:36:19.000Z,100853
2018-08-21T10:38:19.000Z,100853
2018-08-21T10:39:19.000Z,100858
2018-08-21T10:41:19.000Z,100847
2018-08-21T10:43:19.000Z,100845
2018-08-21T10:45:19.000Z,100842
2018-08-21T10:47:19.000Z,100845
2018-08-21T10:49:19.000Z,100847
2018-08-21T10:51:04.000Z,100842
2018-08-21T10:52:19.000Z,100845
2018-08-21T10:53:19.000Z,100847
2018-08-21T10:54:19.000Z,100840
2018-08-21T10:56:04.000Z,100848
2018-08-21T10:57:19.000Z,100843
2018-08-21T10:59:19.000Z,100839
2018-08-21T11:01:20.000Z,100838
2018-08-21T11:03:20.000Z,100830
2018-08-21T11:04:20.000Z,100828
2018-08-21T11:06:20.000Z,100828
2018-08-21T11:08:05.000Z,100827
2018-08-21T11:09:20.000Z,100822
2018-08-21T11:10:20.000Z,100828
2018-08-21T11:12:20.000Z,100830
2018-08-21T11:14:20.000Z,100824
2018-08-21T11:16:20.000Z,100827
2018-08-21T11:18:20.000Z,100825
2018-08-21T11:20:20.000Z,100823
2018-08-21T11:22:05.000Z,100829
2018-08-21T11:23:20.000Z,100829
2018-08-21T11:25:20.000Z,100824
2018-08-21T11:27:05.000Z,100821
2018-08-21T11:28:20.000Z,100823
2018-08-21T11:30:05.000Z,100825
2018-08-21T11:31:20.000Z,100814
2018-08-21T11:32:20.000Z,100821
2018-08-21T11:34:20.000Z,100822
2018-08-21T11:36:20.000Z,100814
2018-08-21T11:38:20.000Z,100819
2018-08-21T11:40:20.000Z,100819
2018-08-21T11:41:20.000Z,100814
2018-08-21T11:43:20.000Z,100816
2018-08-21T11:44:20.000Z,100813
2018-08-21T11:46:20.000Z,100811
2018-08-21T11:48:20.000Z,100812
2018-08-21T11:50:20.000Z,100812
2018-08-21T11:52:05.000Z,100817
2018-08-21T11:53:20.000Z,100816
2018-08-21T11:55:20.000Z,100812
2018-08-21T11:57:20.000Z,100811
2018-08-21T11:59:20.000Z,100806
2018-08-21T12:01:20.000Z,100809
2018-08-21T12:02:20.000Z,100808
2018-08-21T12:04:20.000Z,100806
2018-08-21T12:06:20.000Z,100804
2018-08-21T12:07:20.000Z,100804
2018-08-21T12:08:20.000Z,100801
2018-08-21T12:10:20.000Z,100799
2018-08-21T12:12:20.000Z,100799
2018-08-21T12:13:20.000Z,100800
2018-08-21T12:15:20.000Z,100794
2018-08-21T12:17:05.000Z,100797
2018-08-21T12:18:20.000Z,100795
2018-08-21T12:20:20.000Z,100787
2018-08-21T12:22:05.000Z,100797
2018-08-21T12:23:20.000Z,100795
2018-08-21T12:25:20.000Z,100789
2018-08-21T12:26:20.000Z,100792
2018-08-21T12:28:20.000Z,100794
2018-08-21T12:29:20.000Z,100793
2018-08-21T12:31:20.000Z,100796
2018-08-21T12:33:20.000Z,100792
2018-08-21T12:35:20.000Z,100791
2018-08-21T12:36:20.000Z,100792
2018-08-21T12:37:20.000Z,100789
2018-08-21T12:39:20.000Z,100785
2018-08-21T12:41:05.000Z,100786
2018-08-21T12:42:20.000Z,100780
2018-08-21T12:43:20.000Z,100785
2018-08-21T12:45:20.000Z,100786
2018-08-21T12:47:20.000Z,100779
2018-08-21T12:48:20.000Z,100781
2018-08-21T12:49:20.000Z,100777
2018-08-21T12:51:20.000Z,100775
2018-08-21T12:52:20.000Z,100775
2018-08-21T12:54:20.000Z,100772
2018-08-21T12:56:20.000Z,100778
2018-08-21T12:58:20.000Z,100768
2018-08-21T12:59:20.000Z,100766
2018-08-21T13:01:20.000Z,100768
2018-08-21T13:02:20.000Z,100771
2018-08-21T13:04:20.000Z,100773
2018-08-21T13:06:05.000Z,100770
2018-08-21T13:07:20.000Z,100763
2018-08-21T13:09:19.000Z,100767
2018-08-21T13:10:19.000Z,100766
2018-08-21T13:12:19.000Z,100767
2018-08-21T13:14:19.000Z,100760
2018-08-21T13:15:19.000Z,100766
2018-08-21T13:16:19.000Z,100764
2018-08-21T13:18:19.000Z,100765
2018-08-21T13:19:19.000Z,100760
2018-08-21T13:20:19.000Z,100765
2018-08-21T13:22:19.000Z,100761
2018-08-21T13:23:19.000Z,100762
2018-08-21T13:25:19.000Z,100754
2018-08-21T13:26:19.000Z,100754
2018-08-21T13:28:19.000Z,100757
2018-08-21T13:30:19.000Z,100757
2018-08-21T13:32:19.000Z,100752
2018-08-21T13:33:19.000Z,100750
2018-08-21T13:35:04.000Z,100753
2018-08-21T13:36:04.000Z,100749
2018-08-21T13:37:19.000Z,100750
2018-08-21T13:39:19.000Z,100747
2018-08-21T13:40:19.000Z,100748
2018-08-21T13:42:19.000Z,100747
2018-08-21T13:44:19.000Z,100746
2018-08-21T13:46:19.000Z,100744
2018-08-21T13:48:19.000Z,100739
2018-08-21T13:49:19.000Z,100739
2018-08-21T13:51:19.000Z,100732
2018-08-21T13:53:19.000Z,100734
2018-08-21T13:55:19.000Z,100731
2018-08-21T13:56:19.000Z,100735
2018-08-21T13:57:19.000Z,100735
2018-08-21T13:59:19.000Z,100733
2018-08-21T14:01:19.000Z,100730
2018-08-21T14:03:19.000Z,100730
2018-08-21T14:04:19.000Z,100730
2018-08-21T14:06:19.000Z,100729
2018-08-21T14:07:19.000Z,100731
2018-08-21T14:09:19.000Z,100725
2018-08-21T14:11:05.000Z,100730
2018-08-21T14:12:20.000Z,100728
2018-08-21T14:14:20.000Z,100731
2018-08-21T14:16:05.000Z,100731
2018-08-21T14:17:20.000Z,100731
2018-08-21T14:19:05.000Z,100726
2018-08-21T14:20:20.000Z,100726
2018-08-21T14:21:20.000Z,100727
2018-08-21T14:22:20.000Z,100726
2018-08-21T14:24:20.000Z,100721
2018-08-21T14:26:20.000Z,100720
2018-08-21T14:28:20.000Z,100723
2018-08-21T14:29:20.000Z,100716
2018-08-21T14:31:20.000Z,100716
2018-08-21T14:33:20.000Z,100720
2018-08-21T14:35:20.000Z,100711
2018-08-21T14:37:20.000Z,100709
2018-08-21T14:39:20.000Z,100710
2018-08-21T14:40:20.000Z,100712
2018-08-21T14:42:20.000Z,100710
2018-08-21T14:43:20.000Z,100706
2018-08-21T14:45:20.000Z,100708
2018-08-21T14:46:20.000Z,100710
2018-08-21T14:48:20.000Z,100706
2018-08-21T14:49:20.000Z,100706
2018-08-21T14:51:05.000Z,100712
2018-08-21T14:52:20.000Z,100706
2018-08-21T14:54:20.000Z,100702
2018-08-21T14:55:20.000Z,100710
2018-08-21T14:57:20.000Z,100707
2018-08-21T14:59:20.000Z,100703
2018-08-21T15:01:20.000Z,100702
2018-08-21T15:03:20.000Z,100701
2018-08-21T15:05:20.000Z,100694
2018-08-21T15:07:05.000Z,100693
2018-08-21T15:08:20.000Z,100699
2018-08-21T15:10:20.000Z,100697
2018-08-21T15:11:20.000Z,100697
2018-08-21T15:13:20.000Z,100692
2018-08-21T15:15:04.000Z,100687
2018-08-21T15:16:20.000Z,100685
2018-08-21T15:18:20.000Z,100684
2018-08-21T15:19:20.000Z,100686
2018-08-21T15:20:49.000Z,100686
2018-08-21T15:22:20.000Z,100680
2018-08-21T15:24:20.000Z,100679
2018-08-21T15:25:20.000Z,100675
2018-08-21T15:27:20.000Z,100677
2018-08-21T15:29:20.000Z,100675
2018-08-21T15:31:20.000Z,100670
2018-08-21T15:33:20.000Z,100673
2018-08-21T15:35:20.000Z,100669
2018-08-21T15:36:20.000Z,100674
2018-08-21T15:38:20.000Z,100670
2018-08-21T15:40:20.000Z,100668
2018-08-21T15:42:20.000Z,100674
2018-08-21T15:44:20.000Z,100667
2018-08-21T15:46:04.000Z,100668
2018-08-21T15:47:20.000Z,100671
2018-08-21T15:48:20.000Z,100665
2018-08-21T15:50:20.000Z,100666
